createdAt,value
2018-06-29T00:00:42.980Z,95636.80
2018-06-29T00:03:12.947Z,95641.09
2018-06-29T00:05:43.078Z,95647.04
2018-06-29T00:08:13.423Z,95640.55
2018-06-29T00:10:43.471Z,95642.44
2018-06-29T00:13:13.603Z,95644.34
2018-06-29T00:15:43.685Z,95640.02
2018-06-29T00:18:13.803Z,95639.74
2018-06-29T00:20:43.881Z,95641.09
2018-06-29T00:23:13.969Z,95641.66
2018-06-29T00:25:44.049Z,95638.39
2018-06-29T00:28:14.195Z,95637.05
2018-06-29T00:30:44.313Z,95634.89
2018-06-29T00:33:14.452Z,95634.63
2018-06-29T00:35:44.633Z,95630.88
2018-06-29T00:38:14.690Z,95637.86
2018-06-29T00:40:44.775Z,95645.13
2018-06-29T00:43:14.901Z,95635.70
2018-06-29T00:45:45.022Z,95632.19
2018-06-29T00:48:15.105Z,95632.22
2018-06-29T00:50:45.216Z,95626.55
2018-06-29T00:53:15.363Z,95634.35
2018-06-29T00:55:45.488Z,95633.81
2018-06-29T00:58:15.596Z,95631.66
2018-06-29T01:00:45.682Z,95627.90
2018-06-29T01:03:15.794Z,95634.94
2018-06-29T01:05:45.514Z,95631.41
2018-06-29T01:08:15.721Z,95632.75
2018-06-29T01:10:45.722Z,95636.27
2018-06-29T01:13:15.823Z,95632.50
2018-06-29T01:15:45.920Z,95637.62
2018-06-29T01:18:16.123Z,95632.75
2018-06-29T01:20:46.841Z,95633.00
2018-06-29T01:23:16.986Z,95637.61
2018-06-29T01:25:47.163Z,95636.52
2018-06-29T01:28:17.287Z,95635.98
2018-06-29T01:30:47.375Z,95630.59
2018-06-29T01:33:17.494Z,95635.44
2018-06-29T01:35:47.618Z,95641.91
2018-06-29T01:38:17.770Z,95641.65
2018-06-29T01:40:47.876Z,95637.86
2018-06-29T01:43:18.019Z,95637.61
2018-06-29T01:45:48.144Z,95636.79
2018-06-29T01:48:18.269Z,95638.95
2018-06-29T01:50:48.349Z,95639.23
2018-06-29T01:53:18.488Z,95632.75
2018-06-29T01:55:48.608Z,95628.72
2018-06-29T01:58:18.752Z,95633.03
2018-06-29T02:00:48.869Z,95629.25
2018-06-29T02:03:18.936Z,95631.97
2018-06-29T02:05:49.141Z,95634.66
2018-06-29T02:08:19.355Z,95625.48
2018-06-29T02:10:49.564Z,95629.53
2018-06-29T02:13:19.688Z,95632.75
2018-06-29T02:15:49.853Z,95635.16
2018-06-29T02:18:20.015Z,95628.17
2018-06-29T02:20:50.113Z,95619.31
2018-06-29T02:23:20.248Z,95626.00
2018-06-29T02:25:50.348Z,95627.08
2018-06-29T02:28:20.445Z,95627.36
2018-06-29T02:30:50.574Z,95639.70
2018-06-29T02:33:20.626Z,95619.25
2018-06-29T02:35:50.305Z,95614.41
2018-06-29T02:38:20.427Z,95615.22
2018-06-29T02:40:50.506Z,95613.05
2018-06-29T02:43:20.580Z,95608.47
2018-06-29T02:45:50.704Z,95617.34
2018-06-29T02:48:20.817Z,95613.03
2018-06-29T02:50:50.929Z,95616.25
2018-06-29T02:53:21.048Z,95609.81
2018-06-29T02:55:51.182Z,95614.95
2018-06-29T02:58:21.272Z,95608.75
2018-06-29T03:00:51.475Z,95615.48
2018-06-29T03:03:21.543Z,95609.56
2018-06-29T03:05:51.674Z,95609.30
2018-06-29T03:08:21.941Z,95607.12
2018-06-29T03:10:52.078Z,95609.30
2018-06-29T03:13:22.184Z,95606.08
2018-06-29T03:15:52.536Z,95611.98
2018-06-29T03:18:22.618Z,95608.22
2018-06-29T03:20:52.749Z,95607.95
2018-06-29T03:23:22.386Z,95600.96
2018-06-29T03:25:52.472Z,95610.38
2018-06-29T03:28:22.566Z,95608.23
2018-06-29T03:30:52.704Z,95607.42
2018-06-29T03:33:22.793Z,95600.72
2018-06-29T03:35:52.959Z,95606.62
2018-06-29T03:38:23.064Z,95612.53
2018-06-29T03:40:53.222Z,95611.20
2018-06-29T03:43:22.865Z,95610.13
2018-06-29T03:45:53.014Z,95610.13
2018-06-29T03:48:23.128Z,95612.27
2018-06-29T03:50:53.237Z,95607.44
2018-06-29T03:53:23.324Z,95615.25
2018-06-29T03:55:53.584Z,95602.05
2018-06-29T03:58:23.718Z,95604.45
2018-06-29T04:00:53.804Z,95609.05
2018-06-29T04:03:24.032Z,95603.92
2018-06-29T04:05:54.125Z,95603.13
2018-06-29T04:08:23.831Z,95596.13
2018-06-29T04:10:53.945Z,95598.02
2018-06-29T04:13:24.034Z,95597.23
2018-06-29T04:15:54.250Z,95594.26
2018-06-29T04:18:24.337Z,95593.44
2018-06-29T04:20:54.419Z,95589.41
2018-06-29T04:23:24.523Z,95589.94
2018-06-29T04:25:54.603Z,95594.26
2018-06-29T04:28:24.658Z,95591.56
2018-06-29T04:30:54.798Z,95590.50
2018-06-29T04:33:25.033Z,95575.94
2018-06-29T04:35:55.184Z,95575.13
2018-06-29T04:38:25.296Z,95580.79
2018-06-29T04:40:55.419Z,95580.26
2018-06-29T04:43:25.546Z,95569.73
2018-06-29T04:45:55.654Z,95569.73
2018-06-29T04:48:25.874Z,95576.50
2018-06-29T04:50:56.008Z,95579.70
2018-06-29T04:53:26.072Z,95585.04
2018-06-29T04:55:56.180Z,95581.00
2018-06-29T04:58:26.265Z,95583.44
2018-06-29T05:00:56.498Z,95581.00
2018-06-29T05:03:26.633Z,95579.66
2018-06-29T05:05:56.759Z,95587.97
2018-06-29T05:08:26.849Z,95589.65
2018-06-29T05:10:57.398Z,95588.25
2018-06-29T05:13:27.486Z,95593.64
2018-06-29T05:15:57.618Z,95587.13
2018-06-29T05:18:27.742Z,95575.25
2018-06-29T05:20:57.862Z,95585.50
2018-06-29T05:23:27.994Z,95571.48
2018-06-29T05:25:58.043Z,95583.61
2018-06-29T05:28:28.215Z,95590.34
2018-06-29T05:30:58.272Z,95594.09
2018-06-29T05:33:28.409Z,95597.60
2018-06-29T05:35:58.712Z,95598.69
2018-06-29T05:38:28.726Z,95603.83
2018-06-29T05:40:59.167Z,95602.12
2018-06-29T05:43:29.344Z,95601.34
2018-06-29T05:45:59.437Z,95599.12
2018-06-29T05:48:29.528Z,95589.69
2018-06-29T05:50:59.627Z,95601.00
2018-06-29T05:53:29.767Z,95593.72
2018-06-29T05:55:59.832Z,95589.90
2018-06-29T05:58:30.092Z,95597.95
2018-06-29T06:00:59.832Z,95595.06
2018-06-29T06:03:30.013Z,95591.83
2018-06-29T06:06:00.146Z,95588.83
2018-06-29T06:08:30.263Z,95592.59
2018-06-29T06:11:00.312Z,95596.85
2018-06-29T06:13:30.062Z,95595.47
2018-06-29T06:16:00.849Z,95590.30
2018-06-29T06:18:30.938Z,95586.86
2018-06-29T06:21:01.070Z,95591.90
2018-06-29T06:23:31.245Z,95588.05
2018-06-29T06:26:01.355Z,95592.33
2018-06-29T06:28:31.566Z,95597.38
2018-06-29T06:31:01.690Z,95611.10
2018-06-29T06:33:31.802Z,95611.37
2018-06-29T06:36:01.882Z,95612.63
2018-06-29T06:38:32.021Z,95617.58
2018-06-29T06:41:02.145Z,95608.38
2018-06-29T06:43:32.330Z,95610.21
2018-06-29T06:46:02.495Z,95620.27
2018-06-29T06:48:32.638Z,95613.46
2018-06-29T06:51:02.751Z,95615.38
2018-06-29T06:53:32.981Z,95617.47
2018-06-29T06:56:03.107Z,95612.05
2018-06-29T06:58:33.252Z,95620.34
2018-06-29T07:01:03.581Z,95617.17
2018-06-29T07:03:33.685Z,95619.32
2018-06-29T07:06:03.736Z,95615.27
2018-06-29T07:08:33.475Z,95623.56
2018-06-29T07:11:03.656Z,95625.06
2018-06-29T07:13:33.761Z,95617.00
2018-06-29T07:16:03.901Z,95613.52
2018-06-29T07:18:34.070Z,95621.34
2018-06-29T07:21:04.325Z,95610.46
2018-06-29T07:23:34.441Z,95607.14
2018-06-29T07:26:04.640Z,95601.09
2018-06-29T07:28:34.844Z,95597.82
2018-06-29T07:31:04.962Z,95596.97
2018-06-29T07:33:35.061Z,95600.08
2018-06-29T07:36:05.262Z,95599.17
2018-06-29T07:38:35.388Z,95600.77
2018-06-29T07:41:05.589Z,95588.75
2018-06-29T07:43:35.694Z,95590.63
2018-06-29T07:46:06.173Z,95600.34
2018-06-29T07:48:36.283Z,95586.22
2018-06-29T07:51:06.636Z,95591.16
2018-06-29T07:53:36.972Z,95597.53
2018-06-29T07:56:07.848Z,95595.33
2018-06-29T07:58:38.056Z,95593.78
2018-06-29T08:01:08.309Z,95595.41
2018-06-29T08:03:38.464Z,95591.97
2018-06-29T08:06:08.580Z,95597.06
2018-06-29T08:08:38.705Z,95603.36
2018-06-29T08:11:08.852Z,95597.70
2018-06-29T08:13:39.014Z,95599.46
2018-06-29T08:16:09.124Z,95599.73
2018-06-29T08:18:38.867Z,95601.68
2018-06-29T08:21:09.013Z,95601.79
2018-06-29T08:23:39.191Z,95600.14
2018-06-29T08:26:29.639Z,95596.87
2018-06-29T08:28:59.811Z,95592.08
2018-06-29T08:31:29.971Z,95591.31
2018-06-29T08:34:00.127Z,95584.98
2018-06-29T08:36:30.195Z,95597.23
2018-06-29T08:39:00.341Z,95597.20
2018-06-29T08:41:30.482Z,95597.97
2018-06-29T08:44:00.591Z,95602.75
2018-06-29T08:46:30.701Z,95594.11
2018-06-29T08:49:00.857Z,95593.80
2018-06-29T08:51:31.035Z,95591.95
2018-06-29T08:54:01.202Z,95585.92
2018-06-29T08:56:31.284Z,95592.16
2018-06-29T08:59:02.517Z,95591.11
2018-06-29T09:01:32.653Z,95587.69
2018-06-29T09:04:02.823Z,95590.03
2018-06-29T09:06:32.886Z,95589.88
2018-06-29T09:09:03.108Z,95590.42
2018-06-29T09:11:33.240Z,95585.86
2018-06-29T09:14:03.905Z,95590.27
2018-06-29T09:16:34.021Z,95589.45
2018-06-29T09:19:04.164Z,95590.95
2018-06-29T09:21:34.315Z,95595.04
2018-06-29T09:24:04.436Z,95596.40
2018-06-29T09:26:34.565Z,95592.56
2018-06-29T09:29:04.744Z,95589.21
2018-06-29T09:31:34.842Z,95595.87
2018-06-29T09:34:05.066Z,95592.94
2018-06-29T09:36:35.481Z,95586.47
2018-06-29T09:39:08.065Z,95588.32
2018-06-29T09:41:38.185Z,95589.42
2018-06-29T09:44:08.366Z,95585.48
2018-06-29T09:46:38.516Z,95588.58
2018-06-29T09:49:08.596Z,95585.98
2018-06-29T09:51:38.719Z,95577.93
2018-06-29T09:54:08.842Z,95573.95
2018-06-29T09:56:38.989Z,95570.82
2018-06-29T09:59:09.020Z,95575.78
2018-06-29T10:01:39.150Z,95553.62
2018-06-29T10:04:09.273Z,95569.73
2018-06-29T10:06:39.449Z,95564.34
2018-06-29T10:09:11.091Z,95565.85
2018-06-29T10:11:41.347Z,95565.80
2018-06-29T10:14:11.420Z,95566.46
2018-06-29T10:16:41.554Z,95564.55
2018-06-29T10:19:11.616Z,95565.70
2018-06-29T10:21:41.763Z,95566.40
2018-06-29T10:24:12.033Z,95565.97
2018-06-29T10:26:41.716Z,95555.47
2018-06-29T10:29:11.769Z,95559.29
2018-06-29T10:31:41.849Z,95556.61
2018-06-29T10:34:11.943Z,95558.96
2018-06-29T10:36:42.142Z,95555.02
2018-06-29T10:39:14.239Z,95545.05
2018-06-29T10:41:45.094Z,95550.68
2018-06-29T10:44:15.184Z,95553.53
2018-06-29T10:46:45.309Z,95556.05
2018-06-29T10:49:15.441Z,95544.69
2018-06-29T10:51:45.506Z,95557.02
2018-06-29T10:54:15.747Z,95551.37
2018-06-29T10:56:45.936Z,95548.80
2018-06-29T10:59:15.932Z,95549.47
2018-06-29T11:01:46.063Z,95553.61
2018-06-29T11:04:16.155Z,95553.82
2018-06-29T11:06:46.263Z,95552.78
2018-06-29T11:09:15.872Z,95546.88
2018-06-29T11:11:45.979Z,95550.51
2018-06-29T11:14:16.012Z,95552.46
2018-06-29T11:16:46.107Z,95543.81
2018-06-29T11:19:16.211Z,95547.91
2018-06-29T11:21:46.791Z,95547.81
2018-06-29T11:24:16.888Z,95544.48
2018-06-29T11:26:47.184Z,95547.91
2018-06-29T11:29:17.499Z,95545.23
2018-06-29T11:31:47.807Z,95539.73
2018-06-29T11:34:17.860Z,95533.27
2018-06-29T11:36:47.995Z,95532.95
2018-06-29T11:39:18.170Z,95527.70
2018-06-29T11:41:48.310Z,95531.16
2018-06-29T11:44:18.419Z,95529.62
2018-06-29T11:46:48.533Z,95528.35
2018-06-29T11:49:18.646Z,95528.09
2018-06-29T11:51:48.301Z,95520.72
2018-06-29T11:54:18.403Z,95523.49
2018-06-29T11:56:48.571Z,95513.75
2018-06-29T11:59:18.692Z,95516.27
2018-06-29T12:01:48.754Z,95513.75
2018-06-29T12:04:18.378Z,95505.36
2018-06-29T12:06:48.490Z,95510.73
2018-06-29T12:09:18.554Z,95504.89
2018-06-29T12:11:48.583Z,95507.02
2018-06-29T12:14:19.397Z,95509.11
2018-06-29T12:16:49.576Z,95510.16
2018-06-29T12:19:19.324Z,95512.78
2018-06-29T12:21:49.450Z,95507.52
2018-06-29T12:24:19.523Z,95502.67
2018-06-29T12:26:49.693Z,95508.55
2018-06-29T12:29:19.887Z,95512.03
2018-06-29T12:31:50.088Z,95503.48
2018-06-29T12:34:19.858Z,95508.30
2018-06-29T12:36:49.905Z,95514.36
2018-06-29T12:39:20.050Z,95508.84
2018-06-29T12:41:50.172Z,95508.47
2018-06-29T12:44:20.307Z,95504.25
2018-06-29T12:46:50.582Z,95504.80
2018-06-29T12:49:20.826Z,95504.40
2018-06-29T12:51:50.901Z,95501.38
2018-06-29T12:54:20.615Z,95489.02
2018-06-29T12:56:50.740Z,95493.92
2018-06-29T12:59:20.464Z,95494.80
2018-06-29T13:01:50.092Z,95498.36
2018-06-29T13:04:20.273Z,95492.84
2018-06-29T13:06:50.369Z,95494.27
2018-06-29T13:09:20.476Z,95494.44
2018-06-29T13:11:50.591Z,95499.95
2018-06-29T13:14:20.684Z,95484.44
2018-06-29T13:16:50.371Z,95491.86
2018-06-29T13:19:20.658Z,95499.20
2018-06-29T13:21:50.851Z,95488.64
2018-06-29T13:24:21.030Z,95485.86
2018-06-29T13:26:51.416Z,95483.43
2018-06-29T13:29:21.614Z,95488.71
2018-06-29T13:31:51.834Z,95480.38
2018-06-29T13:34:21.975Z,95482.19
2018-06-29T13:36:52.151Z,95480.16
2018-06-29T13:39:22.613Z,95475.69
2018-06-29T13:41:52.996Z,95481.60
2018-06-29T13:44:23.194Z,95479.98
2018-06-29T13:46:52.951Z,95472.43
2018-06-29T13:49:23.209Z,95467.74
2018-06-29T13:51:53.360Z,95447.16
2018-06-29T13:54:23.064Z,95465.47
2018-06-29T13:56:52.706Z,95461.23
2018-06-29T13:59:22.945Z,95467.86
2018-06-29T14:01:53.119Z,95465.02
2018-06-29T14:04:23.221Z,95465.27
2018-06-29T14:06:53.337Z,95465.22
2018-06-29T14:09:23.648Z,95459.23
2018-06-29T14:11:55.216Z,95454.19
2018-06-29T14:14:26.445Z,95462.64
2018-06-29T14:16:57.163Z,95459.75
2018-06-29T14:19:28.351Z,95452.52
2018-06-29T14:21:58.890Z,95451.33
2018-06-29T14:24:29.177Z,95442.97
2018-06-29T14:26:59.354Z,95451.34
2018-06-29T14:29:29.675Z,95442.51
2018-06-29T14:31:59.823Z,95444.78
2018-06-29T14:34:29.987Z,95442.23
2018-06-29T14:37:00.235Z,95438.23
2018-06-29T14:39:30.432Z,95437.83
2018-06-29T14:42:00.568Z,95437.70
2018-06-29T14:44:30.930Z,95439.38
2018-06-29T14:47:01.047Z,95433.55
2018-06-29T14:49:31.250Z,95429.92
2018-06-29T14:52:01.344Z,95434.76
2018-06-29T14:54:31.546Z,95425.47
2018-06-29T14:57:01.985Z,95429.45
2018-06-29T14:59:32.442Z,95433.12
2018-06-29T15:02:02.780Z,95423.98
2018-06-29T15:04:33.634Z,95423.18
2018-06-29T15:07:04.112Z,95417.27
2018-06-29T15:09:34.358Z,95419.19
2018-06-29T15:12:04.206Z,95414.01
2018-06-29T15:14:35.083Z,95414.89
2018-06-29T15:17:05.356Z,95408.72
2018-06-29T15:19:36.032Z,95408.98
2018-06-29T15:22:06.526Z,95401.77
2018-06-29T15:24:36.807Z,95408.05
2018-06-29T15:27:07.166Z,95400.81
2018-06-29T15:29:37.691Z,95409.52
2018-06-29T15:32:08.000Z,95412.50
2018-06-29T15:34:38.283Z,95408.69
2018-06-29T15:37:09.047Z,95408.91
2018-06-29T15:39:39.204Z,95405.30
2018-06-29T15:42:09.452Z,95404.36
2018-06-29T15:44:39.693Z,95404.50
2018-06-29T15:47:09.890Z,95402.98
2018-06-29T15:49:40.415Z,95392.66
2018-06-29T15:52:10.667Z,95398.43
2018-06-29T15:54:41.159Z,95390.95
2018-06-29T15:57:11.366Z,95399.58
2018-06-29T15:59:41.646Z,95389.94
2018-06-29T16:02:12.307Z,95383.80
2018-06-29T16:04:43.172Z,95394.48
2018-06-29T16:07:13.673Z,95390.28
2018-06-29T16:09:43.987Z,95387.30
2018-06-29T16:12:14.576Z,95391.83
2018-06-29T16:14:44.985Z,95388.73
2018-06-29T16:17:15.681Z,95387.50
2018-06-29T16:19:45.909Z,95382.28
2018-06-29T16:22:16.513Z,95377.64
2018-06-29T16:24:47.041Z,95374.73
2018-06-29T16:27:17.634Z,95372.49
2018-06-29T16:29:47.781Z,95374.52
2018-06-29T16:32:17.935Z,95375.14
2018-06-29T16:34:48.116Z,95373.64
2018-06-29T16:37:18.343Z,95380.34
2018-06-29T16:39:48.536Z,95379.84
2018-06-29T16:42:18.759Z,95380.02
2018-06-29T16:44:48.956Z,95375.73
2018-06-29T16:47:19.100Z,95379.27
2018-06-29T16:49:49.230Z,95378.02
2018-06-29T16:52:19.615Z,95382.23
2018-06-29T16:54:49.869Z,95373.89
2018-06-29T16:57:20.139Z,95374.25
2018-06-29T16:59:49.998Z,95382.76
2018-06-29T17:02:20.375Z,95380.81
2018-06-29T17:04:50.652Z,95384.72
2018-06-29T17:07:21.213Z,95385.52
2018-06-29T17:09:51.538Z,95378.16
2018-06-29T17:12:21.925Z,95380.48
2018-06-29T17:14:52.101Z,95374.98
2018-06-29T17:17:22.417Z,95370.35
2018-06-29T17:19:52.770Z,95373.05
2018-06-29T17:22:23.118Z,95370.64
2018-06-29T17:24:53.599Z,95362.97
2018-06-29T17:27:24.029Z,95371.62
2018-06-29T17:29:54.094Z,95364.01
2018-06-29T17:32:24.369Z,95364.28
2018-06-29T17:34:54.406Z,95369.38
2018-06-29T17:37:24.859Z,95368.73
2018-06-29T17:39:55.089Z,95370.81
2018-06-29T17:42:25.391Z,95370.98
2018-06-29T17:44:55.522Z,95370.20
2018-06-29T17:47:26.303Z,95371.62
2018-06-29T17:49:56.504Z,95369.81
2018-06-29T17:52:26.872Z,95369.84
2018-06-29T17:54:57.118Z,95363.26
2018-06-29T17:57:27.532Z,95366.23
2018-06-29T17:59:57.198Z,95363.16
2018-06-29T18:02:27.916Z,95366.47
2018-06-29T18:04:58.203Z,95367.42
2018-06-29T18:07:28.627Z,95371.06
2018-06-29T18:09:58.310Z,95369.28
2018-06-29T18:12:28.750Z,95366.61
2018-06-29T18:14:59.041Z,95367.98
2018-06-29T18:17:29.617Z,95362.52
2018-06-29T18:20:00.392Z,95363.41
2018-06-29T18:22:31.048Z,95365.75
2018-06-29T18:25:01.554Z,95371.19
2018-06-29T18:27:32.117Z,95366.84
2018-06-29T18:30:02.258Z,95375.03
2018-06-29T18:32:32.715Z,95372.73
2018-06-29T18:35:02.941Z,95370.44
2018-06-29T18:40:01.922Z,95371.95
2018-06-29T18:42:32.406Z,95371.91
2018-06-29T18:45:02.879Z,95370.94
2018-06-29T18:47:33.307Z,95370.31
2018-06-29T18:50:03.647Z,95369.69
2018-06-29T18:52:34.063Z,95371.52
2018-06-29T18:55:04.294Z,95368.23
2018-06-29T18:57:34.982Z,95380.33
2018-06-29T19:00:05.786Z,95370.12
2018-06-29T19:02:37.252Z,95372.42
2018-06-29T19:05:07.638Z,95377.66
2018-06-29T19:07:38.115Z,95381.78
2018-06-29T19:10:09.599Z,95379.63
2018-06-29T19:12:40.081Z,95377.28
2018-06-29T19:15:11.193Z,95379.63
2018-06-29T19:17:41.685Z,95384.54
2018-06-29T19:20:12.182Z,95380.77
2018-06-29T19:22:43.272Z,95380.96
2018-06-29T19:25:13.798Z,95385.12
2018-06-29T19:27:44.331Z,95379.72
2018-06-29T19:30:14.990Z,95382.02
2018-06-29T19:32:45.647Z,95384.63
2018-06-29T19:35:15.965Z,95395.27
2018-06-29T19:37:46.616Z,95392.44
2018-06-29T19:40:18.019Z,95394.94
2018-06-29T19:42:48.438Z,95395.92
2018-06-29T19:45:18.393Z,95395.52
2018-06-29T19:47:48.835Z,95401.22
2018-06-29T19:50:19.436Z,95399.82
2018-06-29T19:52:49.706Z,95402.91
2018-06-29T19:55:20.139Z,95412.34
2018-06-29T19:57:50.398Z,95405.66
2018-06-29T20:00:20.463Z,95405.47
2018-06-29T20:02:50.514Z,95408.16
2018-06-29T20:05:20.553Z,95405.55
2018-06-29T20:07:50.958Z,95407.27
2018-06-29T20:10:21.091Z,95401.47
2018-06-29T20:12:51.141Z,95411.87
2018-06-29T20:15:20.849Z,95411.70
2018-06-29T20:17:51.268Z,95410.80
2018-06-29T20:20:21.501Z,95412.78
2018-06-29T20:22:51.499Z,95416.39
2018-06-29T20:25:21.566Z,95415.40
2018-06-29T20:27:51.624Z,95416.70
2018-06-29T20:30:21.726Z,95416.57
2018-06-29T20:32:51.758Z,95416.16
2018-06-29T20:35:21.931Z,95425.71
2018-06-29T20:37:51.958Z,95418.48
2018-06-29T20:40:22.035Z,95420.50
2018-06-29T20:42:52.087Z,95425.98
2018-06-29T20:45:22.155Z,95435.80
2018-06-29T20:47:52.193Z,95424.77
2018-06-29T20:50:22.289Z,95429.27
2018-06-29T20:52:52.328Z,95429.34
2018-06-29T20:55:23.915Z,95429.11
2018-06-29T20:57:54.029Z,95424.55
2018-06-29T21:00:24.116Z,95425.23
2018-06-29T21:02:54.219Z,95422.09
2018-06-29T21:05:23.965Z,95422.09
2018-06-29T21:07:54.149Z,95425.38
2018-06-29T21:10:24.303Z,95419.54
2018-06-29T21:12:54.365Z,95420.56
2018-06-29T21:15:24.414Z,95423.60
2018-06-29T21:17:54.560Z,95419.00
2018-06-29T21:20:24.616Z,95423.13
2018-06-29T21:22:54.944Z,95421.81
2018-06-29T21:25:25.011Z,95417.24
2018-06-29T21:27:55.073Z,95424.31
2018-06-29T21:30:25.106Z,95412.00
2018-06-29T21:32:55.117Z,95420.15
2018-06-29T21:35:25.223Z,95416.91
2018-06-29T21:37:55.757Z,95418.59
2018-06-29T21:40:25.804Z,95415.61
2018-06-29T21:42:55.863Z,95414.86
2018-06-29T21:45:25.897Z,95405.16
2018-06-29T21:47:56.004Z,95411.41
2018-06-29T21:50:25.671Z,95406.70
2018-06-29T21:52:55.774Z,95405.68
2018-06-29T21:55:25.850Z,95408.98
2018-06-29T21:57:55.996Z,95409.52
2018-06-29T22:00:30.141Z,95409.02
2018-06-29T22:03:04.408Z,95405.55
2018-06-29T22:05:34.546Z,95412.09
2018-06-29T22:08:04.916Z,95406.48
2018-06-29T22:10:35.266Z,95405.13
2018-06-29T22:13:05.614Z,95404.05
2018-06-29T22:15:35.676Z,95404.89
2018-06-29T22:18:05.839Z,95395.19
2018-06-29T22:20:35.875Z,95398.48
2018-06-29T22:23:05.976Z,95399.11
2018-06-29T22:25:36.043Z,95399.41
2018-06-29T22:28:06.221Z,95394.10
2018-06-29T22:30:36.582Z,95397.64
2018-06-29T22:33:07.224Z,95396.00
2018-06-29T22:35:37.283Z,95391.95
2018-06-29T22:38:07.322Z,95393.31
2018-06-29T22:40:37.369Z,95392.02
2018-06-29T22:43:07.557Z,95393.47
2018-06-29T22:45:38.008Z,95389.66
2018-06-29T22:48:08.030Z,95399.41
2018-06-29T22:50:38.101Z,95396.17
2018-06-29T22:53:08.181Z,95382.42
2018-06-29T22:55:38.334Z,95389.20
2018-06-29T22:58:08.453Z,95383.89
2018-06-29T23:00:38.509Z,95390.41
2018-06-29T23:03:10.722Z,95306.18
2018-06-29T23:05:40.791Z,95379.08
2018-06-29T23:08:11.980Z,95383.94
2018-06-29T23:10:42.086Z,95390.48
2018-06-29T23:13:12.096Z,95385.84
2018-06-29T23:15:41.703Z,95386.91
2018-06-29T23:18:11.793Z,95384.21
2018-06-29T23:20:41.819Z,95387.97
2018-06-29T23:23:11.891Z,95386.09
2018-06-29T23:25:41.943Z,95387.16
2018-06-29T23:28:12.015Z,95383.41
2018-06-29T23:30:41.721Z,95382.91
2018-06-29T23:33:11.748Z,95377.48
2018-06-29T23:35:41.771Z,95375.33
2018-06-29T23:38:11.876Z,95376.41
2018-06-29T23:40:41.913Z,95378.34
2018-06-29T23:43:11.988Z,95375.37
2018-06-29T23:45:42.052Z,95373.01
2018-06-29T23:48:12.091Z,95370.38
2018-06-29T23:50:42.159Z,95372.30
2018-06-29T23:53:12.554Z,95373.93
2018-06-29T23:55:42.623Z,95365.61
2018-06-29T23:58:12.707Z,95361.58
